createdAt,value
2022-10-21T00:00:19.968Z,1000.73
2022-10-21T00:01:19.471Z,1000.73
2022-10-21T00:02:19.592Z,1000.78
2022-10-21T00:03:19.744Z,1000.64
2022-10-21T00:04:19.911Z,1000.64
2022-10-21T00:05:20.048Z,1000.61
2022-10-21T00:06:20.972Z,1000.64
2022-10-21T00:07:20.480Z,1000.55
2022-10-21T00:08:21.465Z,1000.52
2022-10-21T00:09:21.469Z,1000.56
2022-10-21T00:10:21.469Z,1000.55
2022-10-21T00:11:21.082Z,1000.51
2022-10-21T00:12:21.494Z,1000.40
2022-10-21T00:13:21.401Z,1000.46
2022-10-21T00:14:22.472Z,1000.42
2022-10-21T00:15:21.980Z,1000.42
2022-10-21T00:16:22.475Z,1000.46
2022-10-21T00:17:22.974Z,1000.43
2022-10-21T00:18:22.969Z,1000.37
2022-10-21T00:19:22.484Z,1000.38
2022-10-21T00:21:23.985Z,1000.37
2022-10-21T00:22:22.834Z,1000.35
2022-10-21T00:23:22.988Z,1000.32
2022-10-21T00:24:23.488Z,1000.30
2022-10-21T00:25:23.975Z,1000.30
2022-10-21T00:26:24.471Z,1000.27
2022-10-21T00:27:23.715Z,1000.25
2022-10-21T00:28:23.878Z,1000.16
2022-10-21T00:29:24.053Z,1000.14
2022-10-21T00:30:24.998Z,1000.12
2022-10-21T00:31:24.399Z,1000.14
2022-10-21T00:32:24.545Z,1000.12
2022-10-21T00:33:24.689Z,1000.15
2022-10-21T00:34:28.503Z,1000.08
2022-10-21T00:35:26.967Z,999.96
2022-10-21T00:36:25.208Z,999.99
2022-10-21T00:37:25.486Z,1000.11
2022-10-21T00:38:25.505Z,999.97
2022-10-21T00:39:26.480Z,1000.11
2022-10-21T00:40:25.846Z,999.95
2022-10-21T00:41:26.492Z,999.99
2022-10-21T00:42:26.998Z,999.88
2022-10-21T00:43:26.231Z,999.82
2022-10-21T00:44:26.379Z,999.81
2022-10-21T00:45:26.513Z,999.92
2022-10-21T00:46:26.668Z,999.82
2022-10-21T00:47:26.803Z,999.89
2022-10-21T00:48:26.929Z,999.75
2022-10-21T00:49:27.978Z,999.74
2022-10-21T00:50:27.197Z,999.75
2022-10-21T00:51:27.354Z,999.73
2022-10-21T00:52:27.470Z,999.68
2022-10-21T00:53:27.997Z,999.61
2022-10-21T00:54:27.743Z,999.72
2022-10-21T00:55:27.865Z,999.79
2022-10-21T00:56:28.981Z,999.60
2022-10-21T00:57:28.216Z,999.59
2022-10-21T00:58:28.332Z,999.63
2022-10-21T00:59:28.472Z,999.66
2022-10-21T01:00:28.604Z,999.64
2022-10-21T01:01:28.914Z,999.54
2022-10-21T01:02:29.055Z,999.55
2022-10-21T01:03:29.178Z,999.52
2022-10-21T01:04:29.340Z,999.53
2022-10-21T01:05:29.462Z,999.51
2022-10-21T01:06:30.490Z,999.47
2022-10-21T01:07:29.716Z,999.43
2022-10-21T01:08:29.926Z,999.39
2022-10-21T01:09:29.977Z,999.46
2022-10-21T01:10:30.988Z,999.42
2022-10-21T01:11:30.369Z,999.37
2022-10-21T01:12:30.526Z,999.35
2022-10-21T01:13:31.496Z,999.39
2022-10-21T01:14:30.998Z,999.42
2022-10-21T01:15:31.012Z,999.38
2022-10-21T01:16:31.193Z,999.40
2022-10-21T01:17:47.169Z,999.42
2022-10-21T01:18:33.483Z,999.41
2022-10-21T01:19:31.718Z,999.54
2022-10-21T01:20:32.000Z,999.37
2022-10-21T01:21:32.033Z,999.39
2022-10-21T01:22:32.987Z,999.28
2022-10-21T01:23:32.334Z,999.42
2022-10-21T01:24:32.470Z,999.34
2022-10-21T01:25:32.634Z,999.34
2022-10-21T01:26:32.773Z,999.37
2022-10-21T01:27:32.906Z,999.38
2022-10-21T01:28:33.048Z,999.31
2022-10-21T01:29:33.992Z,999.36
2022-10-21T01:30:33.353Z,999.41
2022-10-21T01:31:33.990Z,999.35
2022-10-21T01:32:33.731Z,999.43
2022-10-21T01:33:33.873Z,999.39
2022-10-21T01:34:34.043Z,999.41
2022-10-21T01:35:34.172Z,999.35
2022-10-21T01:36:34.997Z,999.37
2022-10-21T01:37:35.755Z,999.35
2022-10-21T01:39:08.926Z,999.39
2022-10-21T01:39:35.047Z,999.38
2022-10-21T01:40:35.068Z,999.34
2022-10-21T01:41:35.198Z,999.36
2022-10-21T01:42:35.595Z,999.36
2022-10-21T01:43:36.035Z,999.31
2022-10-21T01:44:36.043Z,999.31
2022-10-21T01:45:35.911Z,999.33
2022-10-21T01:46:36.084Z,999.29
2022-10-21T01:47:36.233Z,999.22
2022-10-21T01:48:36.382Z,999.20
2022-10-21T01:49:37.035Z,999.25
2022-10-21T01:50:36.679Z,999.25
2022-10-21T01:51:36.828Z,999.19
2022-10-21T01:52:37.300Z,999.13
2022-10-21T01:53:37.180Z,999.15
2022-10-21T01:54:37.325Z,999.22
2022-10-21T01:55:37.507Z,999.01
2022-10-21T01:56:37.666Z,999.04
2022-10-21T01:57:37.828Z,998.96
2022-10-21T01:58:37.979Z,998.94
2022-10-21T01:59:38.131Z,999.00
2022-10-21T02:00:38.331Z,998.95
2022-10-21T02:01:38.463Z,999.05
2022-10-21T02:02:38.991Z,999.05
2022-10-21T02:03:38.914Z,999.03
2022-10-21T02:04:39.030Z,999.02
2022-10-21T02:05:40.038Z,998.92
2022-10-21T02:06:40.062Z,998.91
2022-10-21T02:07:39.585Z,998.95
2022-10-21T02:09:13.241Z,998.96
2022-10-21T02:09:40.582Z,998.88
2022-10-21T02:10:40.583Z,998.89
2022-10-21T02:11:40.208Z,998.80
2022-10-21T02:12:40.649Z,998.78
2022-10-21T02:13:40.518Z,998.84
2022-10-21T02:14:40.654Z,998.84
2022-10-21T02:15:40.822Z,998.77
2022-10-21T02:16:41.578Z,998.85
2022-10-21T02:17:41.083Z,998.79
2022-10-21T02:18:41.307Z,998.69
2022-10-21T02:19:41.590Z,998.71
2022-10-21T02:20:41.589Z,998.65
2022-10-21T02:21:42.596Z,998.72
2022-10-21T02:22:42.575Z,998.75
2022-10-21T02:23:42.184Z,998.78
2022-10-21T02:24:42.355Z,998.77
2022-10-21T02:25:43.076Z,998.84
2022-10-21T02:26:43.595Z,998.67
2022-10-21T02:27:43.590Z,998.72
2022-10-21T02:28:43.195Z,998.65
2022-10-21T02:29:43.232Z,998.60
2022-10-21T02:30:43.391Z,998.64
2022-10-21T02:31:43.563Z,998.58
2022-10-21T02:32:43.741Z,998.48
2022-10-21T02:33:44.579Z,998.49
2022-10-21T02:34:44.060Z,998.54
2022-10-21T02:35:45.090Z,998.57
2022-10-21T02:36:44.467Z,998.49
2022-10-21T02:37:45.588Z,998.49
2022-10-21T02:38:44.814Z,998.55
2022-10-21T02:39:45.578Z,998.50
2022-10-21T02:40:45.097Z,998.47
2022-10-21T02:41:45.285Z,998.46
2022-10-21T02:42:45.427Z,998.40
2022-10-21T02:43:45.561Z,998.42
2022-10-21T02:44:45.721Z,998.42
2022-10-21T02:45:46.586Z,998.36
2022-10-21T02:46:46.598Z,998.38
2022-10-21T02:47:46.257Z,998.50
2022-10-21T02:48:46.600Z,998.53
2022-10-21T02:49:47.585Z,998.60
2022-10-21T02:50:46.816Z,998.48
2022-10-21T02:51:46.963Z,998.49
2022-10-21T02:52:47.117Z,998.71
2022-10-21T02:53:48.284Z,998.54
2022-10-21T02:54:47.445Z,998.48
2022-10-21T02:55:47.587Z,998.59
2022-10-21T02:56:47.720Z,998.39
2022-10-21T02:57:47.862Z,998.50
2022-10-21T02:58:47.989Z,998.54
2022-10-21T02:59:48.166Z,998.42
2022-10-21T03:00:49.114Z,998.47
2022-10-21T03:01:48.511Z,998.50
2022-10-21T03:02:48.635Z,998.47
2022-10-21T03:03:48.787Z,998.51
2022-10-21T03:04:48.940Z,998.53
2022-10-21T03:05:49.077Z,998.66
2022-10-21T03:06:49.215Z,998.54
2022-10-21T03:07:51.088Z,998.63
2022-10-21T03:08:49.717Z,998.62
2022-10-21T03:09:49.891Z,998.65
2022-10-21T03:10:53.012Z,998.46
2022-10-21T03:11:50.223Z,998.54
2022-10-21T03:12:50.368Z,998.66
2022-10-21T03:13:50.555Z,998.59
2022-10-21T03:14:51.617Z,998.65
2022-10-21T03:15:51.107Z,998.68
2022-10-21T03:16:51.593Z,998.69
2022-10-21T03:17:51.279Z,998.69
2022-10-21T03:18:51.470Z,998.73
2022-10-21T03:19:51.646Z,998.69
2022-10-21T03:20:52.113Z,998.63
2022-10-21T03:21:52.018Z,998.63
2022-10-21T03:22:52.191Z,998.70
2022-10-21T03:23:52.369Z,998.68
2022-10-21T03:24:53.122Z,998.67
2022-10-21T03:25:52.783Z,998.65
2022-10-21T03:26:52.978Z,998.64
2022-10-21T03:27:53.170Z,998.62
2022-10-21T03:28:53.340Z,998.56
2022-10-21T03:29:53.577Z,998.59
2022-10-21T03:30:54.111Z,998.57
2022-10-21T03:31:53.895Z,998.57
2022-10-21T03:32:54.059Z,998.60
2022-10-21T03:33:54.238Z,998.53
2022-10-21T03:34:54.431Z,998.58
2022-10-21T03:35:54.639Z,998.60
2022-10-21T03:36:54.834Z,998.56
2022-10-21T03:37:55.013Z,998.60
2022-10-21T03:38:55.165Z,998.52
2022-10-21T03:39:56.097Z,998.52
2022-10-21T03:40:55.497Z,998.53
2022-10-21T03:41:56.603Z,998.42
2022-10-21T03:42:55.857Z,998.42
2022-10-21T03:43:56.113Z,998.43
2022-10-21T03:44:57.098Z,998.35
2022-10-21T03:45:56.330Z,998.41
2022-10-21T03:46:56.460Z,998.44
2022-10-21T03:47:56.627Z,998.47
2022-10-21T03:49:02.740Z,998.42
2022-10-21T03:49:58.992Z,998.49
2022-10-21T03:50:58.103Z,998.46
2022-10-21T03:51:57.225Z,998.44
2022-10-21T03:52:57.375Z,998.45
2022-10-21T03:53:57.571Z,998.46
2022-10-21T03:54:57.712Z,998.43
2022-10-21T03:55:57.866Z,998.50
2022-10-21T03:56:57.996Z,998.45
2022-10-21T03:57:58.146Z,998.45
2022-10-21T03:58:58.905Z,998.46
2022-10-21T03:59:59.529Z,998.41
2022-10-21T04:00:58.664Z,998.43
2022-10-21T04:01:58.882Z,998.51
2022-10-21T04:02:58.963Z,998.53
2022-10-21T04:03:59.128Z,998.52
2022-10-21T04:05:00.109Z,998.53
2022-10-21T04:05:59.469Z,998.53
2022-10-21T04:06:59.620Z,998.42
2022-10-21T04:07:59.746Z,998.44
2022-10-21T04:08:59.953Z,998.50
2022-10-21T04:10:00.606Z,998.50
2022-10-21T04:11:00.247Z,998.41
2022-10-21T04:12:00.390Z,998.44
2022-10-21T04:13:01.107Z,998.38
2022-10-21T04:14:01.614Z,998.41
2022-10-21T04:15:00.961Z,998.39
2022-10-21T04:16:01.135Z,998.42
2022-10-21T04:17:07.106Z,998.46
2022-10-21T04:18:03.362Z,998.51
2022-10-21T04:19:01.542Z,998.43
2022-10-21T04:20:01.788Z,998.46
2022-10-21T04:21:01.899Z,998.52
2022-10-21T04:22:02.153Z,998.52
2022-10-21T04:23:02.299Z,998.47
2022-10-21T04:24:02.447Z,998.49
2022-10-21T04:25:04.825Z,998.46
2022-10-21T04:26:02.770Z,998.49
2022-10-21T04:27:03.611Z,998.53
2022-10-21T04:28:03.130Z,998.38
2022-10-21T04:29:03.250Z,998.63
2022-10-21T04:30:03.415Z,998.50
2022-10-21T04:31:03.534Z,998.48
2022-10-21T04:32:03.669Z,998.55
2022-10-21T04:33:03.844Z,998.52
2022-10-21T04:34:04.126Z,998.48
2022-10-21T04:35:05.121Z,998.53
2022-10-21T04:36:04.417Z,998.45
2022-10-21T04:37:05.346Z,998.53
2022-10-21T04:38:04.737Z,998.50
2022-10-21T04:39:04.893Z,998.51
2022-10-21T04:40:06.082Z,998.48
2022-10-21T04:41:06.115Z,998.44
2022-10-21T04:42:05.373Z,998.57
2022-10-21T04:43:05.555Z,998.48
2022-10-21T04:44:05.737Z,998.50
2022-10-21T04:45:05.917Z,998.49
2022-10-21T04:46:07.629Z,998.52
2022-10-21T04:47:06.285Z,998.54
2022-10-21T04:48:07.124Z,998.51
2022-10-21T04:49:06.628Z,998.43
2022-10-21T04:50:07.129Z,998.44
2022-10-21T04:51:06.895Z,998.45
2022-10-21T04:52:07.034Z,998.48
2022-10-21T04:53:07.193Z,998.50
2022-10-21T04:54:07.344Z,998.45
2022-10-21T04:55:07.473Z,998.54
2022-10-21T04:56:07.612Z,998.50
2022-10-21T04:57:07.756Z,998.52
2022-10-21T04:58:07.908Z,998.45
2022-10-21T04:59:08.053Z,998.45
2022-10-21T05:00:08.198Z,998.41
2022-10-21T05:01:08.368Z,998.48
2022-10-21T05:02:08.556Z,998.38
2022-10-21T05:03:10.089Z,998.35
2022-10-21T05:04:08.846Z,998.44
2022-10-21T05:05:08.994Z,998.31
2022-10-21T05:06:10.132Z,998.42
2022-10-21T05:07:09.254Z,998.32
2022-10-21T05:08:11.600Z,998.37
2022-10-21T05:09:10.616Z,998.38
2022-10-21T05:10:09.765Z,998.30
2022-10-21T05:11:09.927Z,998.33
2022-10-21T05:12:10.065Z,998.41
2022-10-21T05:13:10.642Z,998.38
2022-10-21T05:14:10.429Z,998.37
2022-10-21T05:15:10.597Z,998.32
2022-10-21T05:16:10.758Z,998.28
2022-10-21T05:17:10.895Z,998.39
2022-10-21T05:18:11.668Z,998.35
2022-10-21T05:19:12.153Z,998.36
2022-10-21T05:20:12.134Z,998.41
2022-10-21T05:21:12.175Z,998.39
2022-10-21T05:22:11.805Z,998.30
2022-10-21T05:23:11.995Z,998.39
2022-10-21T05:24:12.147Z,998.47
2022-10-21T05:25:13.133Z,998.31
2022-10-21T05:26:12.505Z,998.31
2022-10-21T05:27:13.156Z,998.34
2022-10-21T05:28:13.631Z,998.25
2022-10-21T05:29:13.143Z,998.40
2022-10-21T05:30:13.133Z,998.23
2022-10-21T05:31:13.644Z,998.21
2022-10-21T05:32:13.418Z,998.26
2022-10-21T05:33:14.152Z,998.19
2022-10-21T05:34:14.701Z,998.19
2022-10-21T05:35:13.965Z,998.31
2022-10-21T05:36:14.635Z,998.25
2022-10-21T05:37:14.274Z,998.23
2022-10-21T05:38:14.454Z,998.20
2022-10-21T05:39:14.648Z,998.17
2022-10-21T05:40:14.796Z,998.13
2022-10-21T05:41:15.634Z,998.18
2022-10-21T05:42:15.177Z,998.12
2022-10-21T05:43:15.346Z,998.09
2022-10-21T05:44:15.520Z,998.19
2022-10-21T05:45:15.658Z,998.18
2022-10-21T05:46:15.794Z,998.08
2022-10-21T05:47:15.936Z,998.06
2022-10-21T05:48:17.985Z,998.04
2022-10-21T05:49:17.203Z,998.14
2022-10-21T05:50:16.304Z,998.10
2022-10-21T05:51:16.554Z,998.05
2022-10-21T05:52:16.699Z,998.11
2022-10-21T05:53:17.636Z,998.14
2022-10-21T05:54:17.015Z,998.15
2022-10-21T05:55:17.187Z,998.19
2022-10-21T05:56:17.326Z,998.15
2022-10-21T05:57:17.470Z,998.18
2022-10-21T05:58:17.606Z,998.08
2022-10-21T05:59:17.742Z,998.09
2022-10-21T06:00:18.638Z,998.14
2022-10-21T06:01:18.226Z,998.14
2022-10-21T06:02:18.292Z,998.18
2022-10-21T06:03:18.654Z,998.22
2022-10-21T06:04:18.657Z,998.14
2022-10-21T06:05:18.783Z,998.01
2022-10-21T06:06:19.158Z,998.06
2022-10-21T06:07:19.067Z,998.09
2022-10-21T06:08:20.151Z,998.03
2022-10-21T06:09:19.376Z,998.03
2022-10-21T06:10:19.569Z,998.00
2022-10-21T06:11:19.725Z,998.01
2022-10-21T06:12:20.672Z,998.05
2022-10-21T06:13:20.049Z,998.08
2022-10-21T06:14:21.143Z,998.07
2022-10-21T06:15:21.152Z,998.06
2022-10-21T06:16:20.654Z,998.06
2022-10-21T06:17:20.649Z,998.16
2022-10-21T06:18:20.914Z,998.10
2022-10-21T06:19:21.654Z,998.13
2022-10-21T06:20:21.256Z,998.11
2022-10-21T06:21:21.410Z,998.04
2022-10-21T06:22:22.164Z,998.08
2022-10-21T06:23:22.163Z,998.10
2022-10-21T06:24:22.658Z,998.12
2022-10-21T06:25:22.155Z,998.29
2022-10-21T06:26:22.300Z,998.12
2022-10-21T06:27:22.505Z,998.00
2022-10-21T06:28:22.673Z,998.06
2022-10-21T06:29:22.831Z,998.12
2022-10-21T06:30:23.653Z,998.06
2022-10-21T06:31:23.171Z,998.11
2022-10-21T06:32:23.327Z,998.14
2022-10-21T06:33:26.824Z,998.19
2022-10-21T06:34:23.653Z,998.04
2022-10-21T06:35:24.651Z,998.16
2022-10-21T06:36:24.657Z,998.17
2022-10-21T06:37:24.159Z,998.09
2022-10-21T06:38:24.326Z,998.18
2022-10-21T06:39:24.456Z,998.03
2022-10-21T06:40:24.616Z,998.01
2022-10-21T06:41:24.773Z,998.00
2022-10-21T06:42:24.961Z,997.97
2022-10-21T06:43:25.167Z,998.06
2022-10-21T06:44:25.329Z,998.02
2022-10-21T06:45:25.454Z,998.07
2022-10-21T06:46:25.598Z,998.05
2022-10-21T06:47:25.706Z,997.98
2022-10-21T06:48:25.967Z,998.05
2022-10-21T06:49:26.100Z,998.07
2022-10-21T06:50:26.733Z,998.11
2022-10-21T06:51:26.362Z,998.00
2022-10-21T06:52:27.169Z,998.03
2022-10-21T06:53:26.644Z,997.99
2022-10-21T06:54:26.761Z,998.00
2022-10-21T06:55:26.999Z,998.05
2022-10-21T06:56:27.257Z,998.02
2022-10-21T06:57:27.410Z,998.01
2022-10-21T06:58:27.538Z,997.93
2022-10-21T06:59:27.663Z,998.08
2022-10-21T07:00:28.176Z,997.86
2022-10-21T07:01:34.846Z,997.88
2022-10-21T07:02:30.035Z,998.11
2022-10-21T07:03:29.156Z,998.00
2022-10-21T07:04:28.482Z,997.98
2022-10-21T07:05:29.178Z,998.02
2022-10-21T07:06:28.842Z,998.05
2022-10-21T07:07:28.984Z,997.98
2022-10-21T07:08:40.264Z,998.00
2022-10-21T07:09:31.378Z,997.92
2022-10-21T07:10:30.192Z,997.99
2022-10-21T07:11:29.688Z,997.93
2022-10-21T07:12:30.803Z,997.82
2022-10-21T07:13:30.031Z,997.85
2022-10-21T07:14:31.162Z,997.85
2022-10-21T07:15:30.399Z,997.80
2022-10-21T07:16:30.575Z,997.76
2022-10-21T07:17:30.731Z,997.96
2022-10-21T07:18:30.898Z,997.90
2022-10-21T07:19:31.050Z,997.86
2022-10-21T07:20:31.228Z,997.82
2022-10-21T07:21:31.376Z,997.87
2022-10-21T07:22:31.531Z,997.90
2022-10-21T07:23:32.180Z,997.91
2022-10-21T07:24:31.862Z,997.88
2022-10-21T07:25:32.027Z,997.95
2022-10-21T07:26:32.206Z,997.95
2022-10-21T07:27:32.384Z,997.92
2022-10-21T07:28:32.682Z,997.92
2022-10-21T07:29:33.192Z,997.89
2022-10-21T07:30:32.878Z,998.00
2022-10-21T07:31:33.009Z,997.72
2022-10-21T07:32:33.679Z,997.90
2022-10-21T07:33:33.313Z,997.84
2022-10-21T07:34:33.487Z,997.90
2022-10-21T07:36:08.620Z,997.92
2022-10-21T07:36:33.801Z,997.90
2022-10-21T07:37:34.224Z,997.87
2022-10-21T07:38:34.116Z,997.88
2022-10-21T07:39:34.711Z,997.81
2022-10-21T07:40:34.500Z,997.91
2022-10-21T07:41:34.633Z,997.86
2022-10-21T07:42:34.776Z,997.91
2022-10-21T07:43:35.696Z,997.92
2022-10-21T07:44:35.077Z,997.87
2022-10-21T07:45:35.710Z,997.82
2022-10-21T07:46:35.351Z,997.79
2022-10-21T07:47:35.740Z,997.74
2022-10-21T07:48:36.199Z,997.83
2022-10-21T07:49:35.839Z,997.82
2022-10-21T07:50:36.029Z,997.77
2022-10-21T07:51:36.235Z,997.89
2022-10-21T07:52:39.553Z,997.79
2022-10-21T07:53:38.651Z,997.75
2022-10-21T07:54:37.708Z,997.81
2022-10-21T07:55:37.065Z,997.90
2022-10-21T07:56:37.210Z,997.86
2022-10-21T07:57:37.343Z,997.87
2022-10-21T07:58:37.501Z,997.88
2022-10-21T07:59:37.641Z,997.89
2022-10-21T08:00:37.785Z,997.96
2022-10-21T08:01:37.981Z,997.92
2022-10-21T08:02:38.380Z,998.03
2022-10-21T08:03:38.203Z,997.94
2022-10-21T08:04:38.331Z,998.01
2022-10-21T08:05:38.468Z,997.92
2022-10-21T08:06:38.604Z,997.95
2022-10-21T08:07:39.216Z,997.95
2022-10-21T08:08:39.012Z,998.06
2022-10-21T08:09:39.182Z,998.01
2022-10-21T08:10:39.417Z,998.05
2022-10-21T08:11:40.208Z,998.05
2022-10-21T08:12:40.042Z,998.03
2022-10-21T08:13:39.877Z,998.11
2022-10-21T08:14:40.052Z,998.15
2022-10-21T08:15:40.712Z,998.07
2022-10-21T08:16:40.335Z,998.12
2022-10-21T08:17:40.513Z,998.07
2022-10-21T08:18:41.226Z,998.03
2022-10-21T08:19:41.714Z,997.94
2022-10-21T08:20:41.044Z,998.10
2022-10-21T08:21:41.173Z,998.03
2022-10-21T08:22:41.382Z,998.02
2022-10-21T08:23:41.469Z,998.03
2022-10-21T08:24:42.461Z,998.00
2022-10-21T08:25:42.709Z,998.07
2022-10-21T08:26:42.079Z,998.08
2022-10-21T08:27:42.191Z,998.03
2022-10-21T08:28:42.428Z,998.04
2022-10-21T08:29:42.727Z,998.04
2022-10-21T08:30:42.845Z,997.97
2022-10-21T08:31:42.960Z,998.01
2022-10-21T08:32:43.232Z,997.96
2022-10-21T08:33:43.215Z,997.96
2022-10-21T08:34:43.386Z,997.93
2022-10-21T08:35:44.224Z,997.86
2022-10-21T08:36:44.231Z,997.83
2022-10-21T08:37:44.720Z,998.00
2022-10-21T08:38:43.945Z,998.02
2022-10-21T08:39:44.131Z,997.97
2022-10-21T08:40:45.220Z,997.94
2022-10-21T08:41:44.497Z,997.95
2022-10-21T08:42:44.748Z,997.99
2022-10-21T08:43:44.799Z,998.07
2022-10-21T08:44:44.967Z,998.02
2022-10-21T08:45:45.186Z,998.05
2022-10-21T08:46:46.225Z,998.14
2022-10-21T08:47:45.621Z,998.05
2022-10-21T08:48:45.784Z,998.10
2022-10-21T08:49:46.715Z,997.98
2022-10-21T08:50:46.722Z,998.05
2022-10-21T08:51:46.736Z,998.02
2022-10-21T08:52:46.386Z,998.06
2022-10-21T08:53:47.219Z,998.16
2022-10-21T08:54:46.759Z,998.07
2022-10-21T08:55:46.919Z,998.07
2022-10-21T08:56:47.722Z,998.02
2022-10-21T08:57:47.233Z,997.98
2022-10-21T08:58:47.400Z,997.99
2022-10-21T08:59:47.732Z,997.98
2022-10-21T09:00:47.778Z,998.00
2022-10-21T09:01:47.945Z,998.02
2022-10-21T09:02:48.134Z,998.10
2022-10-21T09:03:49.228Z,998.10
2022-10-21T09:04:48.507Z,998.06
2022-10-21T09:05:48.748Z,998.09
2022-10-21T09:06:49.725Z,998.04
2022-10-21T09:07:49.124Z,998.15
2022-10-21T09:08:52.568Z,998.04
2022-10-21T09:09:49.526Z,998.09
2022-10-21T09:10:49.747Z,998.05
2022-10-21T09:11:49.785Z,998.10
2022-10-21T09:12:49.981Z,998.09
2022-10-21T09:13:50.139Z,998.07
2022-10-21T09:14:50.360Z,998.02
2022-10-21T09:15:50.764Z,998.11
2022-10-21T09:16:50.705Z,998.11
2022-10-21T09:17:50.881Z,998.13
2022-10-21T09:18:52.055Z,998.05
2022-10-21T09:19:51.288Z,998.09
2022-10-21T09:20:55.980Z,998.04
2022-10-21T09:22:01.520Z,998.06
2022-10-21T09:22:53.726Z,998.12
2022-10-21T09:23:51.973Z,998.01
2022-10-21T09:24:52.130Z,997.99
2022-10-21T09:25:52.292Z,998.01
2022-10-21T09:26:52.436Z,998.04
2022-10-21T09:27:57.027Z,998.04
2022-10-21T09:28:54.732Z,998.02
2022-10-21T09:29:52.948Z,998.04
2022-10-21T09:30:53.140Z,998.04
2022-10-21T09:31:58.515Z,998.08
2022-10-21T09:32:55.444Z,998.07
2022-10-21T09:33:53.698Z,998.07
2022-10-21T09:34:53.881Z,998.09
2022-10-21T09:35:54.054Z,998.08
2022-10-21T09:36:54.191Z,998.16
2022-10-21T09:37:54.360Z,998.17
2022-10-21T09:38:54.750Z,998.14
2022-10-21T09:39:55.252Z,998.22
2022-10-21T09:40:54.802Z,998.14
2022-10-21T09:41:58.289Z,998.16
2022-10-21T09:42:56.228Z,998.20
2022-10-21T09:43:55.388Z,998.20
2022-10-21T09:44:55.582Z,998.15
2022-10-21T09:45:55.709Z,998.27
2022-10-21T09:46:56.878Z,998.23
2022-10-21T09:47:56.750Z,998.22
2022-10-21T09:50:07.600Z,998.22
2022-10-21T09:50:58.707Z,998.24
2022-10-21T09:51:56.804Z,998.23
2022-10-21T09:52:56.941Z,998.19
2022-10-21T09:53:57.077Z,998.16
2022-10-21T09:54:57.273Z,998.15
2022-10-21T09:55:57.421Z,998.14
2022-10-21T09:56:57.554Z,998.14
2022-10-21T09:57:57.686Z,998.19
2022-10-21T09:59:01.260Z,998.24
2022-10-21T09:59:58.983Z,998.27
2022-10-21T10:00:58.109Z,998.26
2022-10-21T10:01:59.313Z,998.27
2022-10-21T10:02:58.412Z,998.23
2022-10-21T10:03:58.552Z,998.24
2022-10-21T10:04:59.267Z,998.24
2022-10-21T10:05:58.863Z,998.24
2022-10-21T10:06:59.744Z,998.26
2022-10-21T10:07:59.207Z,998.26
2022-10-21T10:10:00.310Z,998.22
2022-10-21T10:10:59.677Z,998.21
2022-10-21T10:11:59.806Z,998.18
2022-10-21T10:13:00.075Z,998.30
2022-10-21T10:14:01.245Z,998.28
2022-10-21T10:15:00.486Z,998.21
2022-10-21T10:16:01.248Z,998.24
2022-10-21T10:17:01.244Z,998.24
2022-10-21T10:18:01.747Z,998.24
2022-10-21T10:19:01.769Z,998.26
2022-10-21T10:20:01.278Z,998.25
2022-10-21T10:21:02.249Z,998.17
2022-10-21T10:22:01.643Z,998.23
2022-10-21T10:23:01.801Z,998.25
2022-10-21T10:24:01.949Z,998.22
2022-10-21T10:25:02.091Z,998.23
2022-10-21T10:26:02.232Z,998.28
2022-10-21T10:27:02.759Z,998.28
2022-10-21T10:28:02.646Z,998.32
2022-10-21T10:29:02.794Z,998.38
2022-10-21T10:30:02.964Z,998.37
2022-10-21T10:31:03.756Z,998.42
2022-10-21T10:32:03.251Z,998.45
2022-10-21T10:33:03.399Z,998.43
2022-10-21T10:34:04.340Z,998.57
2022-10-21T10:35:03.721Z,998.53
2022-10-21T10:36:05.329Z,998.55
2022-10-21T10:37:05.083Z,998.58
2022-10-21T10:38:05.258Z,998.65
2022-10-21T10:39:04.483Z,998.66
2022-10-21T10:40:04.632Z,998.67
2022-10-21T10:41:04.758Z,998.70
2022-10-21T10:42:04.881Z,998.69
2022-10-21T10:43:05.022Z,998.56
2022-10-21T10:44:05.182Z,998.53
2022-10-21T10:45:05.303Z,998.52
2022-10-21T10:46:05.426Z,998.47
2022-10-21T10:47:05.548Z,998.51
2022-10-21T10:48:05.689Z,998.48
2022-10-21T10:49:06.355Z,998.51
2022-10-21T10:50:06.284Z,998.68
2022-10-21T10:51:06.153Z,998.64
2022-10-21T10:52:06.280Z,998.62
2022-10-21T10:53:06.393Z,998.69
2022-10-21T10:54:07.262Z,998.67
2022-10-21T10:55:07.271Z,998.68
2022-10-21T10:56:06.900Z,998.70
2022-10-21T10:57:07.045Z,998.73
2022-10-21T10:58:11.694Z,998.70
2022-10-21T10:59:09.409Z,998.63
2022-10-21T11:00:07.658Z,998.66
2022-10-21T11:01:07.851Z,998.62
2022-10-21T11:02:07.935Z,998.68
2022-10-21T11:03:08.088Z,998.66
2022-10-21T11:04:08.314Z,998.72
2022-10-21T11:05:09.262Z,998.75
2022-10-21T11:06:08.773Z,998.70
2022-10-21T11:07:08.781Z,998.73
2022-10-21T11:08:08.936Z,998.74
2022-10-21T11:09:09.169Z,998.74
2022-10-21T11:10:09.776Z,998.85
2022-10-21T11:11:09.520Z,998.77
2022-10-21T11:12:09.685Z,998.84
2022-10-21T11:13:09.815Z,998.89
2022-10-21T11:14:09.976Z,998.84
2022-10-21T11:15:10.119Z,998.85
2022-10-21T11:16:10.278Z,998.90
2022-10-21T11:17:10.414Z,998.91
2022-10-21T11:18:24.069Z,998.89
2022-10-21T11:19:12.861Z,998.90
2022-10-21T11:20:11.765Z,998.96
2022-10-21T11:21:11.274Z,998.95
2022-10-21T11:22:11.296Z,998.91
2022-10-21T11:23:11.442Z,998.88
2022-10-21T11:24:11.567Z,998.82
2022-10-21T11:25:11.704Z,998.80
2022-10-21T11:26:12.282Z,998.78
2022-10-21T11:27:13.521Z,998.72
2022-10-21T11:28:12.229Z,998.74
2022-10-21T11:29:12.377Z,998.76
2022-10-21T11:30:12.568Z,998.75
2022-10-21T11:31:12.692Z,998.74
2022-10-21T11:32:12.924Z,998.76
2022-10-21T11:33:13.292Z,998.82
2022-10-21T11:34:14.268Z,998.84
2022-10-21T11:35:13.562Z,998.89
2022-10-21T11:36:13.710Z,998.87
2022-10-21T11:37:13.895Z,998.86
2022-10-21T11:38:14.031Z,998.84
2022-10-21T11:39:16.364Z,998.86
2022-10-21T11:40:15.403Z,998.81
2022-10-21T11:42:15.284Z,998.79
2022-10-21T11:43:15.770Z,998.74
2022-10-21T11:44:15.260Z,998.79
2022-10-21T11:45:15.416Z,998.75
2022-10-21T11:46:15.569Z,998.75
2022-10-21T11:47:15.767Z,998.80
2022-10-21T11:48:15.902Z,998.86
2022-10-21T11:49:16.096Z,998.86
2022-10-21T11:50:16.313Z,998.85
2022-10-21T11:51:17.378Z,998.89
2022-10-21T11:52:16.616Z,998.94
2022-10-21T11:53:17.284Z,998.91
2022-10-21T11:54:16.971Z,998.85
2022-10-21T11:55:17.106Z,998.95
2022-10-21T11:56:17.282Z,998.95
2022-10-21T11:57:17.438Z,998.97
2022-10-21T11:58:17.593Z,999.05
2022-10-21T11:59:17.790Z,999.05
2022-10-21T12:00:17.948Z,999.02
2022-10-21T12:01:18.104Z,999.01
2022-10-21T12:02:18.814Z,999.00
2022-10-21T12:03:18.445Z,998.98
2022-10-21T12:04:18.615Z,998.98
2022-10-21T12:05:18.765Z,998.93
2022-10-21T12:06:18.994Z,998.85
2022-10-21T12:07:19.301Z,998.80
2022-10-21T12:08:19.377Z,998.81
2022-10-21T12:09:19.582Z,998.79
2022-10-21T12:10:20.318Z,998.80
2022-10-21T12:11:20.779Z,998.80
2022-10-21T12:12:20.071Z,998.73
2022-10-21T12:13:20.292Z,998.81
2022-10-21T12:14:20.443Z,998.79
2022-10-21T12:15:20.617Z,998.78
2022-10-21T12:16:21.778Z,998.86
2022-10-21T12:17:21.036Z,998.82
2022-10-21T12:18:21.319Z,998.87
2022-10-21T12:19:21.326Z,998.78
2022-10-21T12:20:23.888Z,998.75
2022-10-21T12:21:22.374Z,998.76
2022-10-21T12:22:21.754Z,998.66
2022-10-21T12:23:21.899Z,998.61
2022-10-21T12:24:22.073Z,998.58
2022-10-21T12:25:22.248Z,998.55
2022-10-21T12:26:22.421Z,998.52
2022-10-21T12:27:22.614Z,998.49
2022-10-21T12:28:22.790Z,998.40
2022-10-21T12:29:22.970Z,998.37
2022-10-21T12:30:25.094Z,998.37
2022-10-21T12:31:23.788Z,998.40
2022-10-21T12:32:23.469Z,998.35
2022-10-21T12:33:23.629Z,998.25